EHGG

Eelde Airport

Groningen, The Netherlands
METAR EHGG 152155Z AUTO 20003KT 180V240 9999 OVC036 17/15 Q1017
Observed Flight Rules
Aug-15 @ 21:55 UTC (31 minutes ago) Visual Flight Rules
Wind Visibility Clouds
200° at 3 knots 10,000+ meters
  • Overcast at 3,600' AGL
Temperatures Readings
Current 17°C / 63°F
Dewpoint 15°C / 59°F
Humidity 88%
Altimeter 30.03" Hg
Pressure 1017 hPa
Elevation 4
METAR EHGG 152155Z AUTO 20003KT 180V240 9999 OVC036 17/15 Q1017
Observed Flight Rules
Aug-15 @ 21:55 UTC
(31 minutes ago)
VFR
Wind Visibility
200° at 3 knots 10,000+ meters
Clouds
  • Overcast at 3,600' AGL
Temperature Dewpoint
17°C / 63°F 15°C / 59°F
Humidity Altimeter Pressure
88% 30.03" Hg 1017 hPa